createdAt,value
2022-08-03T00:01:54.167Z,1.60
2022-08-03T00:04:21.145Z,1.50
2022-08-03T00:07:01.139Z,1.33
2022-08-03T00:09:28.183Z,1.73
2022-08-03T00:12:02.940Z,1.90
2022-08-03T00:14:29.814Z,1.95
2022-08-03T00:16:56.768Z,1.63
2022-08-03T00:19:23.721Z,2.03
2022-08-03T00:21:51.088Z,1.80
2022-08-03T00:24:18.066Z,1.98
2022-08-03T00:26:44.940Z,1.95
2022-08-03T00:29:11.888Z,1.48
2022-08-03T00:31:51.470Z,2.10
2022-08-03T00:34:27.368Z,2.00
2022-08-03T00:37:03.672Z,2.28
2022-08-03T00:39:30.523Z,1.88
2022-08-03T00:41:57.385Z,1.50
2022-08-03T00:44:24.272Z,1.70
2022-08-03T00:46:51.162Z,1.70
2022-08-03T00:49:18.112Z,1.88
2022-08-03T00:51:45.065Z,2.13
2022-08-03T00:54:12.284Z,1.90
2022-08-03T00:56:39.924Z,2.33
2022-08-03T00:59:27.009Z,2.20
2022-08-03T01:01:54.292Z,2.33
2022-08-03T01:04:21.160Z,1.98
2022-08-03T01:06:59.574Z,2.20
2022-08-03T01:09:33.426Z,2.00
2022-08-03T01:12:08.406Z,1.98
2022-08-03T01:14:38.121Z,2.00
2022-08-03T01:17:13.666Z,2.10
2022-08-03T01:20:00.714Z,2.10
2022-08-03T01:23:05.693Z,1.85
2022-08-03T01:26:14.412Z,2.08
2022-08-03T01:29:18.872Z,2.78
2022-08-03T01:33:00.127Z,1.77
2022-08-03T01:34:52.332Z,1.45
2022-08-03T01:37:38.871Z,2.47
2022-08-03T01:40:07.670Z,2.28
2022-08-03T01:42:36.897Z,2.58
2022-08-03T01:45:04.664Z,2.67
2022-08-03T01:47:32.894Z,2.17
2022-08-03T01:50:01.413Z,2.30
2022-08-03T01:52:30.844Z,1.92
2022-08-03T01:54:59.162Z,1.95
2022-08-03T01:57:29.268Z,2.40
2022-08-03T01:59:58.873Z,2.33
2022-08-03T02:02:32.832Z,1.90
2022-08-03T02:05:03.374Z,2.10
2022-08-03T02:07:33.029Z,1.88
2022-08-03T02:10:02.979Z,2.15
2022-08-03T02:12:32.572Z,2.40
2022-08-03T02:15:01.054Z,2.05
2022-08-03T02:17:39.819Z,2.17
2022-08-03T02:20:09.362Z,2.25
2022-08-03T02:22:39.493Z,2.05
2022-08-03T02:25:11.090Z,2.13
2022-08-03T02:27:43.807Z,1.90
2022-08-03T02:30:12.969Z,2.55
2022-08-03T02:32:42.566Z,2.75
2022-08-03T02:35:13.361Z,2.85
2022-08-03T02:37:49.726Z,3.15
2022-08-03T02:40:20.363Z,6.70
2022-08-03T02:42:49.944Z,17.63
2022-08-03T02:45:18.392Z,21.65
2022-08-03T02:47:53.370Z,14.32
2022-08-03T02:50:23.602Z,6.53
2022-08-03T02:52:53.237Z,12.05
2022-08-03T02:55:21.850Z,5.25
2022-08-03T02:57:50.245Z,4.18
2022-08-03T03:00:27.652Z,3.03
2022-08-03T03:03:00.769Z,2.70
2022-08-03T03:05:52.491Z,3.45
2022-08-03T03:08:20.947Z,2.45
2022-08-03T03:10:55.722Z,2.30
2022-08-03T03:13:23.475Z,2.33
2022-08-03T03:15:52.167Z,2.53
2022-08-03T03:18:22.709Z,2.33
2022-08-03T03:20:52.630Z,2.65
2022-08-03T03:23:22.104Z,2.55
2022-08-03T03:25:49.749Z,2.88
2022-08-03T03:28:16.897Z,2.60
2022-08-03T03:30:44.411Z,2.25
2022-08-03T03:33:12.395Z,2.53
2022-08-03T03:35:41.501Z,2.80
2022-08-03T03:38:09.551Z,2.58
2022-08-03T03:40:38.084Z,2.78
2022-08-03T03:43:09.920Z,2.25
2022-08-03T03:48:07.669Z,2.42
2022-08-03T03:50:36.140Z,2.03
2022-08-03T03:53:04.066Z,2.70
2022-08-03T03:55:31.248Z,2.40
2022-08-03T03:57:58.257Z,2.58
2022-08-03T04:00:25.400Z,2.25
2022-08-03T04:02:52.444Z,2.47
2022-08-03T04:05:37.723Z,2.22
2022-08-03T04:08:27.952Z,2.90
2022-08-03T04:11:29.092Z,2.60
2022-08-03T04:14:17.316Z,5.57
2022-08-03T04:16:49.280Z,4.28
2022-08-03T04:21:52.911Z,2.45
2022-08-03T04:24:22.287Z,2.67
2022-08-03T04:26:54.517Z,2.80
2022-08-03T04:29:22.478Z,2.58
2022-08-03T04:31:50.798Z,2.38
2022-08-03T04:34:17.925Z,2.35
2022-08-03T04:36:49.456Z,2.20
2022-08-03T04:39:27.439Z,2.20
2022-08-03T04:42:06.717Z,2.33
2022-08-03T04:44:39.110Z,2.58
2022-08-03T04:47:06.726Z,2.88
2022-08-03T04:49:35.708Z,3.10
2022-08-03T04:52:03.031Z,2.60
2022-08-03T04:54:30.105Z,3.20
2022-08-03T04:56:57.120Z,2.90
2022-08-03T04:59:24.140Z,2.38
2022-08-03T05:01:51.035Z,2.40
2022-08-03T05:04:18.376Z,3.75
2022-08-03T05:06:48.080Z,2.35
2022-08-03T05:09:25.955Z,2.40
2022-08-03T05:12:08.555Z,2.97
2022-08-03T05:14:38.237Z,2.38
2022-08-03T05:17:06.257Z,2.75
2022-08-03T05:19:33.645Z,2.53
2022-08-03T05:22:00.744Z,2.97
2022-08-03T05:24:27.772Z,2.67
2022-08-03T05:26:54.725Z,2.88
2022-08-03T05:29:21.765Z,2.42
2022-08-03T05:31:48.743Z,3.28
2022-08-03T05:34:15.751Z,2.83
2022-08-03T05:36:42.656Z,2.70
2022-08-03T05:39:09.559Z,2.58
2022-08-03T05:41:37.568Z,3.00
2022-08-03T05:44:04.951Z,3.08
2022-08-03T05:46:32.138Z,2.97
2022-08-03T05:48:59.139Z,2.75
2022-08-03T05:51:26.233Z,2.72
2022-08-03T05:53:53.186Z,2.70
2022-08-03T05:56:24.505Z,2.42
2022-08-03T05:58:52.587Z,2.75
2022-08-03T06:01:21.916Z,2.88
2022-08-03T06:03:49.864Z,2.40
2022-08-03T06:06:17.353Z,3.33
2022-08-03T06:08:45.639Z,2.35
2022-08-03T06:11:13.227Z,3.28
2022-08-03T06:13:41.346Z,3.38
2022-08-03T06:16:08.563Z,2.17
2022-08-03T06:18:35.869Z,2.50
2022-08-03T06:21:15.493Z,2.15
2022-08-03T06:23:53.355Z,1.98
2022-08-03T06:26:22.561Z,2.50
2022-08-03T06:28:53.265Z,2.10
2022-08-03T06:31:24.045Z,2.50
2022-08-03T06:34:34.393Z,2.40
2022-08-03T06:36:38.444Z,2.00
2022-08-03T06:39:05.710Z,2.25
2022-08-03T06:41:37.296Z,2.50
2022-08-03T06:44:05.513Z,2.13
2022-08-03T06:46:32.421Z,2.38
2022-08-03T06:48:59.333Z,2.00
2022-08-03T06:52:05.487Z,2.38
2022-08-03T06:54:13.193Z,2.15
2022-08-03T06:56:40.066Z,2.05
2022-08-03T06:59:07.203Z,2.47
2022-08-03T07:01:34.322Z,1.90
2022-08-03T07:04:01.317Z,2.15
2022-08-03T07:06:28.269Z,1.80
2022-08-03T07:08:59.236Z,2.45
2022-08-03T07:11:26.722Z,2.53
2022-08-03T07:13:53.617Z,2.03
2022-08-03T07:16:20.717Z,2.22
2022-08-03T07:18:47.899Z,2.00
2022-08-03T07:21:16.751Z,1.63
2022-08-03T07:23:43.705Z,1.90
2022-08-03T07:26:10.628Z,1.90
2022-08-03T07:28:37.793Z,2.10
2022-08-03T07:31:04.744Z,1.85
2022-08-03T07:33:31.628Z,1.75
2022-08-03T07:35:58.573Z,1.70
2022-08-03T07:38:25.597Z,1.80
2022-08-03T07:40:53.473Z,1.40
2022-08-03T07:43:21.547Z,1.50
2022-08-03T07:45:48.490Z,1.77
2022-08-03T07:48:15.399Z,1.90
2022-08-03T07:50:42.324Z,1.63
2022-08-03T07:53:09.265Z,1.80
2022-08-03T08:19:16.736Z,2.20
2022-08-03T08:21:53.593Z,2.00
2022-08-03T08:53:29.600Z,2.60
2022-08-03T08:56:02.232Z,2.75
2022-08-03T08:58:35.000Z,1.98
2022-08-03T09:01:02.056Z,2.13
2022-08-03T09:03:30.621Z,2.10
2022-08-03T09:06:00.571Z,2.53
2022-08-03T09:08:28.500Z,2.35
2022-08-03T09:10:55.578Z,2.03
2022-08-03T09:13:22.680Z,2.10
2022-08-03T09:16:08.586Z,2.47
2022-08-03T09:18:35.449Z,2.10
2022-08-03T09:21:34.847Z,2.30
2022-08-03T09:24:05.737Z,2.10
2022-08-03T09:26:36.178Z,1.70
2022-08-03T09:29:15.429Z,1.90
2022-08-03T09:31:47.002Z,2.20
2022-08-03T09:36:46.967Z,1.80
2022-08-03T09:39:40.313Z,1.58
2022-08-03T09:42:11.581Z,1.67
2022-08-03T09:44:43.344Z,1.95
2022-08-03T09:47:11.841Z,1.48
2022-08-03T09:49:41.636Z,1.55
2022-08-03T09:52:38.254Z,2.10
2022-08-03T09:56:05.127Z,1.65
2022-08-03T09:58:09.543Z,1.65
2022-08-03T10:00:58.202Z,1.70
2022-08-03T10:03:28.360Z,2.08
2022-08-03T10:05:59.764Z,1.38
2022-08-03T10:08:27.415Z,1.65
2022-08-03T10:10:54.778Z,1.90
2022-08-03T10:13:23.151Z,1.50
2022-08-03T10:16:22.327Z,1.77
2022-08-03T10:18:37.943Z,1.90
2022-08-03T10:21:10.491Z,1.23
2022-08-03T10:23:38.891Z,1.83
2022-08-03T10:26:07.989Z,2.47
2022-08-03T10:28:47.213Z,1.40
2022-08-03T10:31:15.889Z,1.63
2022-08-03T10:33:51.668Z,1.92
2022-08-03T10:36:24.525Z,1.20
2022-08-03T10:38:53.248Z,1.70
2022-08-03T10:41:32.518Z,1.38
2022-08-03T10:44:05.110Z,1.40
2022-08-03T10:46:35.210Z,1.60
2022-08-03T10:49:03.259Z,1.42
2022-08-03T10:51:33.482Z,1.58
2022-08-03T10:54:01.757Z,1.33
2022-08-03T10:56:53.471Z,1.40
2022-08-03T10:59:48.524Z,1.33
2022-08-03T11:02:15.947Z,1.48
2022-08-03T11:04:44.821Z,1.60
2022-08-03T11:07:23.998Z,1.55
2022-08-03T11:09:56.183Z,1.42
2022-08-03T11:12:30.713Z,1.60
2022-08-03T11:15:09.193Z,1.35
2022-08-03T11:17:46.595Z,1.52
2022-08-03T11:20:46.475Z,1.58
2022-08-03T11:23:14.464Z,1.17
2022-08-03T11:26:13.820Z,1.90
2022-08-03T11:28:43.362Z,1.42
2022-08-03T11:31:48.065Z,1.30
2022-08-03T11:34:12.169Z,1.52
2022-08-03T11:37:16.856Z,1.45
2022-08-03T11:39:46.521Z,1.10
2022-08-03T11:42:23.361Z,1.58
2022-08-03T11:44:51.751Z,1.10
2022-08-03T11:47:20.441Z,0.98
2022-08-03T11:49:48.649Z,1.60
2022-08-03T11:52:17.485Z,1.20
2022-08-03T11:54:45.496Z,1.30
2022-08-03T11:57:13.197Z,1.10
2022-08-03T11:59:40.283Z,1.08
2022-08-03T12:02:07.748Z,1.05
2022-08-03T12:04:54.538Z,1.00
2022-08-03T12:08:02.746Z,1.10
2022-08-03T12:10:13.423Z,1.30
2022-08-03T12:12:46.367Z,1.83
2022-08-03T12:15:13.873Z,1.60
2022-08-03T12:17:41.670Z,1.40
2022-08-03T12:20:20.555Z,1.33
2022-08-03T12:23:06.917Z,1.30
2022-08-03T12:25:39.123Z,1.00
2022-08-03T12:28:36.090Z,1.00
2022-08-03T12:31:06.482Z,1.25
2022-08-03T12:33:55.963Z,1.33
2022-08-03T12:36:23.387Z,1.38
2022-08-03T12:39:07.588Z,1.27
2022-08-03T12:41:36.404Z,1.20
2022-08-03T12:44:08.213Z,1.75
2022-08-03T12:46:36.869Z,1.20
2022-08-03T12:49:19.245Z,1.17
2022-08-03T12:51:46.129Z,1.17
2022-08-03T12:54:24.662Z,1.45
2022-08-03T12:56:58.139Z,1.33
2022-08-03T12:59:34.922Z,1.70
2022-08-03T13:02:04.543Z,1.30
2022-08-03T13:04:36.972Z,1.60
2022-08-03T13:07:12.759Z,1.50
2022-08-03T13:09:54.958Z,1.23
2022-08-03T13:12:23.041Z,1.30
2022-08-03T13:14:52.704Z,1.35
2022-08-03T13:17:20.650Z,1.52
2022-08-03T13:19:48.924Z,1.60
2022-08-03T13:22:20.931Z,1.88
2022-08-03T13:24:51.512Z,1.48
2022-08-03T13:28:01.630Z,1.25
2022-08-03T13:30:07.641Z,1.67
2022-08-03T13:32:35.211Z,1.33
2022-08-03T13:35:03.029Z,1.50
2022-08-03T13:37:32.334Z,1.73
2022-08-03T13:40:02.433Z,2.38
2022-08-03T13:42:34.112Z,1.30
2022-08-03T13:45:01.986Z,2.00
2022-08-03T13:47:29.276Z,1.90
2022-08-03T13:50:01.807Z,1.67
2022-08-03T13:52:36.615Z,1.45
2022-08-03T13:55:06.315Z,1.40
2022-08-03T13:58:02.243Z,1.60
2022-08-03T14:00:28.696Z,1.80
2022-08-03T14:03:07.927Z,1.55
2022-08-03T14:05:41.106Z,1.83
2022-08-03T14:08:08.563Z,1.90
2022-08-03T14:10:41.465Z,1.73
2022-08-03T14:13:09.002Z,2.00
2022-08-03T14:15:38.487Z,1.90
2022-08-03T14:18:15.300Z,1.60
2022-08-03T14:20:49.101Z,1.30
2022-08-03T14:23:21.617Z,1.23
2022-08-03T14:25:51.961Z,1.77
2022-08-03T14:28:21.331Z,1.83
2022-08-03T14:30:48.703Z,1.37
2022-08-03T14:33:16.274Z,1.80
2022-08-03T14:35:43.446Z,2.10
2022-08-03T14:38:11.831Z,1.75
2022-08-03T14:40:38.877Z,1.35
2022-08-03T14:43:05.912Z,1.58
2022-08-03T14:45:32.916Z,1.60
2022-08-03T14:50:32.846Z,1.70
2022-08-03T14:50:51.498Z,1.58
2022-08-03T14:53:23.226Z,1.38
2022-08-03T14:55:51.904Z,0.98
2022-08-03T14:58:20.904Z,1.40
2022-08-03T15:00:49.936Z,1.80
2022-08-03T15:03:20.261Z,1.58
2022-08-03T15:05:54.069Z,2.22
2022-08-03T15:08:22.304Z,1.40
2022-08-03T15:10:50.475Z,1.77
2022-08-03T15:13:18.905Z,1.42
2022-08-03T15:15:46.563Z,1.80
2022-08-03T15:18:17.690Z,1.75
2022-08-03T15:20:46.266Z,1.90
2022-08-03T15:23:19.691Z,1.77
2022-08-03T15:26:28.679Z,1.52
2022-08-03T15:28:37.437Z,1.65
2022-08-03T15:31:07.342Z,2.00
2022-08-03T15:33:35.145Z,1.48
2022-08-03T15:36:03.847Z,1.50
2022-08-03T15:38:30.796Z,1.60
2022-08-03T15:40:59.190Z,1.52
2022-08-03T15:43:26.214Z,1.30
2022-08-03T15:48:41.126Z,1.30
2022-08-03T15:51:09.047Z,1.77
2022-08-03T15:53:36.285Z,1.63
2022-08-03T15:56:07.994Z,1.40
2022-08-03T15:59:04.579Z,2.63
2022-08-03T16:01:26.789Z,1.70
2022-08-03T16:03:53.968Z,1.77
2022-08-03T16:06:29.525Z,2.13
2022-08-03T16:09:23.949Z,1.63
2022-08-03T16:11:54.896Z,2.50
2022-08-03T16:14:34.756Z,1.60
2022-08-03T16:17:07.531Z,2.67
2022-08-03T16:19:35.629Z,1.50
2022-08-03T16:22:03.261Z,2.92
2022-08-03T16:24:30.512Z,1.75
2022-08-03T16:26:57.819Z,2.70
2022-08-03T16:29:27.535Z,1.85
2022-08-03T16:31:55.393Z,1.73
2022-08-03T16:34:22.366Z,1.92
2022-08-03T16:36:51.546Z,1.70
2022-08-03T16:39:19.102Z,1.73
2022-08-03T16:41:54.226Z,1.85
2022-08-03T16:44:30.260Z,2.03
2022-08-03T16:46:58.147Z,1.98
2022-08-03T16:49:54.161Z,3.35
2022-08-03T16:52:12.926Z,1.58
2022-08-03T16:54:40.063Z,2.20
2022-08-03T16:57:07.702Z,1.67
2022-08-03T16:59:36.545Z,1.83
2022-08-03T17:02:09.924Z,1.80
2022-08-03T17:07:03.058Z,2.30
2022-08-03T17:09:38.376Z,2.30
2022-08-03T17:12:07.552Z,1.73
2022-08-03T17:14:38.613Z,1.70
2022-08-03T17:17:16.165Z,2.60
2022-08-03T17:19:47.502Z,2.08
2022-08-03T17:22:27.091Z,1.67
2022-08-03T17:24:56.083Z,3.90
2022-08-03T17:28:48.702Z,1.70
2022-08-03T17:30:19.098Z,2.40
2022-08-03T17:32:52.724Z,2.42
2022-08-03T17:35:24.748Z,2.13
2022-08-03T17:38:03.666Z,4.25
2022-08-03T17:40:32.114Z,1.65
2022-08-03T17:43:00.817Z,1.60
2022-08-03T17:45:51.974Z,4.20
2022-08-03T17:48:18.545Z,4.25
2022-08-03T17:50:56.002Z,8.63
2022-08-03T17:53:30.673Z,5.65
2022-08-03T17:59:52.198Z,12.35
2022-08-03T18:03:11.268Z,13.15
2022-08-03T18:06:11.500Z,1.83
2022-08-03T18:08:35.547Z,1.63
2022-08-03T18:11:14.909Z,4.65
2022-08-03T18:13:57.695Z,1.83
2022-08-03T18:16:32.524Z,1.70
2022-08-03T18:19:09.487Z,10.70
2022-08-03T18:22:02.960Z,11.35
2022-08-03T18:24:30.228Z,6.35
2022-08-03T18:26:58.692Z,2.13
2022-08-03T18:29:27.396Z,3.05
2022-08-03T18:32:06.820Z,2.88
2022-08-03T18:34:53.150Z,2.78
2022-08-03T18:37:25.469Z,4.55
2022-08-03T18:39:57.991Z,2.00
2022-08-03T18:42:26.769Z,4.40
2022-08-03T18:44:57.140Z,2.65
2022-08-03T18:48:11.514Z,3.20
2022-08-03T18:50:49.788Z,5.97
2022-08-03T18:53:23.104Z,14.63
2022-08-03T18:56:26.966Z,15.15
2022-08-03T18:59:04.994Z,5.80
2022-08-03T19:02:00.640Z,6.75
2022-08-03T19:04:32.594Z,8.93
2022-08-03T19:07:09.471Z,6.85
2022-08-03T19:09:44.087Z,4.75
2022-08-03T19:12:57.378Z,4.20
2022-08-03T19:15:36.813Z,4.13
2022-08-03T19:18:11.036Z,3.50
2022-08-03T19:20:38.449Z,3.67
2022-08-03T19:23:06.944Z,4.03
2022-08-03T19:25:40.423Z,3.40
2022-08-03T19:28:09.304Z,63.60
2022-08-03T19:30:39.722Z,35.63
2022-08-03T19:33:12.974Z,38.13
2022-08-03T19:35:56.925Z,47.45
2022-08-03T19:38:28.359Z,32.88
2022-08-03T19:41:03.163Z,23.02
2022-08-03T19:43:53.040Z,20.65
2022-08-03T19:46:30.645Z,15.00
2022-08-03T19:49:17.003Z,15.85
2022-08-03T19:52:01.771Z,7.95
2022-08-03T19:54:52.818Z,12.48
2022-08-03T19:57:23.718Z,13.30
2022-08-03T19:59:53.422Z,16.98
2022-08-03T20:02:27.087Z,16.48
2022-08-03T20:04:57.416Z,14.93
2022-08-03T20:07:26.570Z,7.47
2022-08-03T20:09:56.533Z,12.55
2022-08-03T20:12:27.666Z,17.75
2022-08-03T20:15:00.145Z,13.80
2022-08-03T20:17:55.115Z,19.45
2022-08-03T20:20:21.556Z,19.05
2022-08-03T20:22:57.503Z,8.50
2022-08-03T20:25:38.800Z,16.10
2022-08-03T20:28:14.147Z,18.42
2022-08-03T20:30:47.490Z,33.50
2022-08-03T20:33:18.366Z,25.42
2022-08-03T20:38:46.957Z,15.70
2022-08-03T20:41:15.486Z,30.17
2022-08-03T20:43:42.430Z,21.70
2022-08-03T20:46:31.032Z,8.00
2022-08-03T20:48:58.771Z,10.82
2022-08-03T20:51:50.158Z,11.82
2022-08-03T20:54:22.884Z,13.48
2022-08-03T20:56:58.417Z,14.35
2022-08-03T20:59:38.574Z,13.07
2022-08-03T21:02:29.588Z,15.32
2022-08-03T21:05:03.443Z,12.93
2022-08-03T21:08:07.139Z,13.25
2022-08-03T21:10:38.159Z,6.57
2022-08-03T21:12:55.924Z,4.65
2022-08-03T21:13:07.169Z,20.67
2022-08-03T21:13:30.033Z,20.98
2022-08-03T21:16:11.962Z,21.30
2022-08-03T21:18:50.129Z,27.10
2022-08-03T21:21:19.740Z,8.23
2022-08-03T21:23:53.351Z,6.25
2022-08-03T21:26:23.495Z,7.35
2022-08-03T21:28:53.154Z,5.75
2022-08-03T21:31:25.438Z,7.40
2022-08-03T21:33:56.781Z,11.32
2022-08-03T21:36:26.301Z,11.43
2022-08-03T21:38:56.674Z,4.97
2022-08-03T21:41:26.233Z,9.52
2022-08-03T21:43:53.301Z,7.95
2022-08-03T21:46:21.126Z,13.13
2022-08-03T21:48:56.095Z,13.05
2022-08-03T21:51:25.338Z,26.38
2022-08-03T21:54:02.526Z,23.17
2022-08-03T21:56:51.953Z,19.38
2022-08-03T21:59:20.467Z,10.13
2022-08-03T22:01:51.301Z,6.78
2022-08-03T22:04:55.773Z,38.33
2022-08-03T22:07:09.073Z,27.92
2022-08-03T22:09:38.361Z,20.27
2022-08-03T22:12:06.567Z,29.42
2022-08-03T22:14:34.275Z,11.68
2022-08-03T22:17:06.300Z,20.00
2022-08-03T22:19:37.307Z,18.25
2022-08-03T22:22:08.044Z,21.67
2022-08-03T22:24:36.953Z,12.90
2022-08-03T22:27:23.219Z,6.63
2022-08-03T22:29:51.579Z,9.25
2022-08-03T22:32:18.657Z,5.72
2022-08-03T22:34:48.781Z,10.95
2022-08-03T22:37:20.510Z,6.32
2022-08-03T22:39:50.279Z,8.35
2022-08-03T22:42:19.223Z,17.45
2022-08-03T22:44:49.206Z,17.95
2022-08-03T22:47:22.434Z,71.82
2022-08-03T22:50:31.467Z,25.10
2022-08-03T22:52:41.442Z,18.17
2022-08-03T22:55:11.468Z,13.93
2022-08-03T22:57:46.258Z,5.63
2022-08-03T23:00:23.958Z,13.98
2022-08-03T23:02:53.987Z,7.70
2022-08-03T23:06:01.086Z,9.38
2022-08-03T23:08:15.224Z,18.77
2022-08-03T23:10:47.170Z,13.43
2022-08-03T23:13:20.803Z,18.02
2022-08-03T23:15:59.686Z,18.85
2022-08-03T23:18:37.072Z,22.48
2022-08-03T23:21:11.611Z,26.50
2022-08-03T23:23:45.069Z,33.67
2022-08-03T23:26:16.429Z,36.33
2022-08-03T23:28:46.717Z,28.50
2022-08-03T23:31:15.889Z,21.52
2022-08-03T23:33:45.269Z,25.38
2022-08-03T23:36:30.369Z,13.05
2022-08-03T23:39:02.401Z,5.45
2022-08-03T23:41:30.892Z,31.30
2022-08-03T23:44:01.098Z,20.80
2022-08-03T23:46:30.500Z,26.08
2022-08-03T23:48:58.892Z,36.88
2022-08-03T23:51:46.374Z,32.67
2022-08-03T23:54:35.268Z,15.77
2022-08-03T23:57:44.379Z,15.65
